Goryachiy klyuch, Russia
Current Conditions -  °F | °C
As of 9:30 PM on Friday 24 Oct 2014 (Local Time) from URKK Reporting Station
Overcast Overcast  
Wind Chill: 26°   Ceiling: 1400
Heat Index: 37°   Visibility: 6mi
Dew Point: 32°   Wind: 22mph
Humidity: 81%   Direction: 70°ENE
Pressure: 30.15"   Gusts: 34mph
Location:  44.63°N, 39.13°E
Report Text: URKK 241830Z 07010G15MPS 9999 OVC014 03/M00 Q1021 NOSIG RMKQFE763 SC070
Loading
Personal Weather Stations






























Interactive Weather Map
Tropical Storm Tracking
New forecast layout! Learn more

10-Day Weather Forecast

Advertisements
Track Severe Weather on mobile